sensor_id;sensor_type;location;lat;lon;timestamp;P1;durP1;ratioP1;P2;durP2;ratioP2
59434;SDS011;45241;49.768;8.636;2023-05-07T00:00:12;2.83;;;2.00;;
59434;SDS011;45241;49.768;8.636;2023-05-07T00:02:40;3.83;;;1.98;;
59434;SDS011;45241;49.768;8.636;2023-05-07T00:05:06;3.17;;;2.05;;
59434;SDS011;45241;49.768;8.636;2023-05-07T00:07:32;4.00;;;2.00;;
59434;SDS011;45241;49.768;8.636;2023-05-07T00:09:57;2.65;;;1.95;;
59434;SDS011;45241;49.768;8.636;2023-05-07T00:12:22;2.97;;;1.80;;
59434;SDS011;45241;49.768;8.636;2023-05-07T00:14:48;3.35;;;2.08;;
59434;SDS011;45241;49.768;8.636;2023-05-07T00:17:13;5.20;;;2.00;;
59434;SDS011;45241;49.768;8.636;2023-05-07T00:19:38;4.30;;;2.15;;
59434;SDS011;45241;49.768;8.636;2023-05-07T00:22:04;2.00;;;1.75;;
59434;SDS011;45241;49.768;8.636;2023-05-07T00:24:29;2.42;;;1.70;;
59434;SDS011;45241;49.768;8.636;2023-05-07T00:26:55;6.00;;;1.80;;
59434;SDS011;45241;49.768;8.636;2023-05-07T00:29:20;4.05;;;1.80;;
59434;SDS011;45241;49.768;8.636;2023-05-07T00:31:45;3.55;;;1.70;;
59434;SDS011;45241;49.768;8.636;2023-05-07T00:34:11;5.95;;;2.13;;
59434;SDS011;45241;49.768;8.636;2023-05-07T00:36:36;4.25;;;2.00;;
59434;SDS011;45241;49.768;8.636;2023-05-07T00:39:01;2.85;;;1.80;;
59434;SDS011;45241;49.768;8.636;2023-05-07T00:41:28;3.55;;;2.00;;
59434;SDS011;45241;49.768;8.636;2023-05-07T00:43:55;4.18;;;2.03;;
59434;SDS011;45241;49.768;8.636;2023-05-07T00:46:21;5.63;;;2.10;;
59434;SDS011;45241;49.768;8.636;2023-05-07T00:48:47;3.67;;;2.20;;
59434;SDS011;45241;49.768;8.636;2023-05-07T00:51:14;3.50;;;2.00;;
59434;SDS011;45241;49.768;8.636;2023-05-07T00:53:40;2.90;;;1.98;;
59434;SDS011;45241;49.768;8.636;2023-05-07T00:56:06;4.13;;;2.30;;
59434;SDS011;45241;49.768;8.636;2023-05-07T00:58:32;4.97;;;2.15;;
59434;SDS011;45241;49.768;8.636;2023-05-07T01:00:58;2.70;;;1.98;;
59434;SDS011;45241;49.768;8.636;2023-05-07T01:03:24;6.65;;;2.05;;
59434;SDS011;45241;49.768;8.636;2023-05-07T01:05:49;2.45;;;1.92;;
59434;SDS011;45241;49.768;8.636;2023-05-07T01:08:16;2.65;;;1.95;;
59434;SDS011;45241;49.768;8.636;2023-05-07T01:10:42;6.13;;;2.08;;
59434;SDS011;45241;49.768;8.636;2023-05-07T01:13:09;5.53;;;2.20;;
59434;SDS011;45241;49.768;8.636;2023-05-07T01:15:35;3.22;;;2.00;;
59434;SDS011;45241;49.768;8.636;2023-05-07T01:18:01;3.78;;;2.45;;
59434;SDS011;45241;49.768;8.636;2023-05-07T01:20:27;4.47;;;2.25;;
59434;SDS011;45241;49.768;8.636;2023-05-07T01:22:53;4.40;;;2.17;;
59434;SDS011;45241;49.768;8.636;2023-05-07T01:25:18;5.13;;;2.58;;
59434;SDS011;45241;49.768;8.636;2023-05-07T01:27:43;2.88;;;1.90;;
59434;SDS011;45241;49.768;8.636;2023-05-07T01:30:09;3.00;;;2.10;;
59434;SDS011;45241;49.768;8.636;2023-05-07T01:32:40;4.45;;;1.83;;
59434;SDS011;45241;49.768;8.636;2023-05-07T01:35:07;4.55;;;2.00;;
59434;SDS011;45241;49.768;8.636;2023-05-07T01:37:36;4.18;;;2.10;;
59434;SDS011;45241;49.768;8.636;2023-05-07T01:40:02;4.38;;;2.03;;
59434;SDS011;45241;49.768;8.636;2023-05-07T01:42:28;5.75;;;2.35;;
59434;SDS011;45241;49.768;8.636;2023-05-07T01:44:54;2.35;;;1.70;;
59434;SDS011;45241;49.768;8.636;2023-05-07T01:47:20;3.22;;;2.22;;
59434;SDS011;45241;49.768;8.636;2023-05-07T01:49:46;3.70;;;2.00;;
59434;SDS011;45241;49.768;8.636;2023-05-07T01:52:12;4.03;;;1.70;;
59434;SDS011;45241;49.768;8.636;2023-05-07T01:54:38;6.10;;;2.15;;
59434;SDS011;45241;49.768;8.636;2023-05-07T01:57:03;2.67;;;2.17;;
59434;SDS011;45241;49.768;8.636;2023-05-07T01:59:28;2.63;;;1.88;;
59434;SDS011;45241;49.768;8.636;2023-05-07T02:01:54;2.35;;;1.92;;
59434;SDS011;45241;49.768;8.636;2023-05-07T02:04:19;4.90;;;2.10;;
59434;SDS011;45241;49.768;8.636;2023-05-07T02:06:44;2.63;;;2.10;;
59434;SDS011;45241;49.768;8.636;2023-05-07T02:09:10;3.33;;;1.88;;
59434;SDS011;45241;49.768;8.636;2023-05-07T02:11:36;4.90;;;2.10;;
59434;SDS011;45241;49.768;8.636;2023-05-07T02:14:01;3.97;;;2.17;;
59434;SDS011;45241;49.768;8.636;2023-05-07T02:16:26;4.25;;;2.20;;
59434;SDS011;45241;49.768;8.636;2023-05-07T02:18:51;5.60;;;2.33;;
59434;SDS011;45241;49.768;8.636;2023-05-07T02:21:17;5.57;;;2.20;;
59434;SDS011;45241;49.768;8.636;2023-05-07T02:23:42;4.18;;;2.17;;
59434;SDS011;45241;49.768;8.636;2023-05-07T02:26:08;2.90;;;2.13;;
59434;SDS011;45241;49.768;8.636;2023-05-07T02:28:33;3.35;;;2.20;;
59434;SDS011;45241;49.768;8.636;2023-05-07T02:31:02;3.88;;;2.30;;
59434;SDS011;45241;49.768;8.636;2023-05-07T02:33:27;4.57;;;1.90;;
59434;SDS011;45241;49.768;8.636;2023-05-07T02:35:53;3.15;;;2.22;;
59434;SDS011;45241;49.768;8.636;2023-05-07T02:38:18;4.93;;;2.15;;
59434;SDS011;45241;49.768;8.636;2023-05-07T02:40:43;4.32;;;1.85;;
59434;SDS011;45241;49.768;8.636;2023-05-07T02:43:09;3.80;;;2.15;;
59434;SDS011;45241;49.768;8.636;2023-05-07T02:45:34;2.70;;;2.28;;
59434;SDS011;45241;49.768;8.636;2023-05-07T02:48:01;2.80;;;2.00;;
59434;SDS011;45241;49.768;8.636;2023-05-07T02:50:26;2.45;;;1.90;;
59434;SDS011;45241;49.768;8.636;2023-05-07T02:52:52;2.35;;;1.98;;
59434;SDS011;45241;49.768;8.636;2023-05-07T02:55:17;3.47;;;2.80;;
59434;SDS011;45241;49.768;8.636;2023-05-07T02:57:42;2.92;;;2.15;;
59434;SDS011;45241;49.768;8.636;2023-05-07T03:00:14;5.00;;;2.85;;
59434;SDS011;45241;49.768;8.636;2023-05-07T03:02:42;4.10;;;2.72;;
59434;SDS011;45241;49.768;8.636;2023-05-07T03:05:07;8.13;;;3.65;;
59434;SDS011;45241;49.768;8.636;2023-05-07T03:07:34;5.43;;;2.50;;
59434;SDS011;45241;49.768;8.636;2023-05-07T03:10:00;5.38;;;2.53;;
59434;SDS011;45241;49.768;8.636;2023-05-07T03:12:25;4.07;;;2.90;;
59434;SDS011;45241;49.768;8.636;2023-05-07T03:14:51;5.03;;;2.50;;
59434;SDS011;45241;49.768;8.636;2023-05-07T03:17:16;5.63;;;2.65;;
59434;SDS011;45241;49.768;8.636;2023-05-07T03:19:41;3.67;;;2.50;;
59434;SDS011;45241;49.768;8.636;2023-05-07T03:22:06;3.45;;;2.70;;
59434;SDS011;45241;49.768;8.636;2023-05-07T03:24:32;5.05;;;2.55;;
59434;SDS011;45241;49.768;8.636;2023-05-07T03:26:57;5.45;;;2.53;;
59434;SDS011;45241;49.768;8.636;2023-05-07T03:29:23;4.63;;;2.22;;
59434;SDS011;45241;49.768;8.636;2023-05-07T03:31:48;2.47;;;2.00;;
59434;SDS011;45241;49.768;8.636;2023-05-07T03:34:13;4.00;;;1.83;;
59434;SDS011;45241;49.768;8.636;2023-05-07T03:36:39;2.83;;;2.00;;
59434;SDS011;45241;49.768;8.636;2023-05-07T03:39:05;2.95;;;1.90;;
59434;SDS011;45241;49.768;8.636;2023-05-07T03:41:30;3.13;;;1.83;;
59434;SDS011;45241;49.768;8.636;2023-05-07T03:43:55;5.38;;;1.90;;
59434;SDS011;45241;49.768;8.636;2023-05-07T03:46:21;1.55;;;1.40;;
59434;SDS011;45241;49.768;8.636;2023-05-07T03:48:46;2.67;;;1.65;;
59434;SDS011;45241;49.768;8.636;2023-05-07T03:51:11;1.95;;;1.52;;
59434;SDS011;45241;49.768;8.636;2023-05-07T03:53:37;2.08;;;1.40;;
59434;SDS011;45241;49.768;8.636;2023-05-07T03:56:02;3.47;;;1.48;;
59434;SDS011;45241;49.768;8.636;2023-05-07T03:58:27;1.70;;;1.30;;
59434;SDS011;45241;49.768;8.636;2023-05-07T04:00:53;1.90;;;1.50;;
59434;SDS011;45241;49.768;8.636;2023-05-07T04:03:18;4.15;;;1.67;;
59434;SDS011;45241;49.768;8.636;2023-05-07T04:05:43;2.10;;;1.50;;
59434;SDS011;45241;49.768;8.636;2023-05-07T04:08:09;2.22;;;1.67;;
59434;SDS011;45241;49.768;8.636;2023-05-07T04:10:34;1.70;;;1.40;;
59434;SDS011;45241;49.768;8.636;2023-05-07T04:12:59;3.25;;;1.42;;
59434;SDS011;45241;49.768;8.636;2023-05-07T04:15:24;3.47;;;1.60;;
59434;SDS011;45241;49.768;8.636;2023-05-07T04:17:50;3.63;;;1.60;;
59434;SDS011;45241;49.768;8.636;2023-05-07T04:20:15;2.10;;;1.40;;
59434;SDS011;45241;49.768;8.636;2023-05-07T04:22:42;2.08;;;1.50;;
59434;SDS011;45241;49.768;8.636;2023-05-07T04:25:07;2.95;;;1.40;;
59434;SDS011;45241;49.768;8.636;2023-05-07T04:27:36;1.90;;;1.40;;
59434;SDS011;45241;49.768;8.636;2023-05-07T04:30:02;1.85;;;1.55;;
59434;SDS011;45241;49.768;8.636;2023-05-07T04:32:28;2.60;;;1.50;;
59434;SDS011;45241;49.768;8.636;2023-05-07T04:34:55;2.80;;;1.15;;
59434;SDS011;45241;49.768;8.636;2023-05-07T04:37:21;1.55;;;1.20;;
59434;SDS011;45241;49.768;8.636;2023-05-07T04:39:46;2.42;;;1.52;;
59434;SDS011;45241;49.768;8.636;2023-05-07T04:42:15;2.70;;;1.20;;
59434;SDS011;45241;49.768;8.636;2023-05-07T04:44:41;2.92;;;1.20;;
59434;SDS011;45241;49.768;8.636;2023-05-07T04:47:06;1.88;;;1.30;;
59434;SDS011;45241;49.768;8.636;2023-05-07T04:49:31;4.63;;;1.50;;
59434;SDS011;45241;49.768;8.636;2023-05-07T04:51:57;2.85;;;1.45;;
59434;SDS011;45241;49.768;8.636;2023-05-07T04:54:22;1.80;;;1.20;;
59434;SDS011;45241;49.768;8.636;2023-05-07T04:56:47;1.80;;;1.10;;
59434;SDS011;45241;49.768;8.636;2023-05-07T04:59:13;1.38;;;1.27;;
59434;SDS011;45241;49.768;8.636;2023-05-07T05:01:38;2.08;;;1.30;;
59434;SDS011;45241;49.768;8.636;2023-05-07T05:04:03;1.50;;;1.40;;
59434;SDS011;45241;49.768;8.636;2023-05-07T05:06:29;3.05;;;1.20;;
59434;SDS011;45241;49.768;8.636;2023-05-07T05:08:54;3.33;;;1.42;;
59434;SDS011;45241;49.768;8.636;2023-05-07T05:11:20;1.33;;;1.10;;
59434;SDS011;45241;49.768;8.636;2023-05-07T05:13:46;2.50;;;1.65;;
59434;SDS011;45241;49.768;8.636;2023-05-07T05:16:13;1.27;;;1.17;;
59434;SDS011;45241;49.768;8.636;2023-05-07T05:18:39;2.38;;;1.48;;
59434;SDS011;45241;49.768;8.636;2023-05-07T05:21:05;4.10;;;1.40;;
59434;SDS011;45241;49.768;8.636;2023-05-07T05:23:30;2.20;;;1.50;;
59434;SDS011;45241;49.768;8.636;2023-05-07T05:25:56;2.00;;;1.52;;
59434;SDS011;45241;49.768;8.636;2023-05-07T05:28:24;1.52;;;1.38;;
59434;SDS011;45241;49.768;8.636;2023-05-07T05:30:50;1.75;;;1.27;;
59434;SDS011;45241;49.768;8.636;2023-05-07T05:33:15;1.73;;;1.40;;
59434;SDS011;45241;49.768;8.636;2023-05-07T05:35:41;2.38;;;1.58;;
59434;SDS011;45241;49.768;8.636;2023-05-07T05:38:07;2.15;;;1.45;;
59434;SDS011;45241;49.768;8.636;2023-05-07T05:40:32;2.28;;;1.48;;
59434;SDS011;45241;49.768;8.636;2023-05-07T05:42:58;3.15;;;1.50;;
59434;SDS011;45241;49.768;8.636;2023-05-07T05:45:23;3.08;;;1.40;;
59434;SDS011;45241;49.768;8.636;2023-05-07T05:47:49;1.58;;;1.27;;
59434;SDS011;45241;49.768;8.636;2023-05-07T05:50:14;2.63;;;1.50;;
59434;SDS011;45241;49.768;8.636;2023-05-07T05:52:39;1.75;;;1.20;;
59434;SDS011;45241;49.768;8.636;2023-05-07T05:55:05;3.13;;;1.50;;
59434;SDS011;45241;49.768;8.636;2023-05-07T05:57:31;1.30;;;1.20;;
59434;SDS011;45241;49.768;8.636;2023-05-07T05:59:57;1.92;;;1.20;;
59434;SDS011;45241;49.768;8.636;2023-05-07T06:02:22;3.78;;;1.77;;
59434;SDS011;45241;49.768;8.636;2023-05-07T06:04:47;4.32;;;1.38;;
59434;SDS011;45241;49.768;8.636;2023-05-07T06:07:13;2.00;;;1.40;;
59434;SDS011;45241;49.768;8.636;2023-05-07T06:09:38;3.05;;;1.30;;
59434;SDS011;45241;49.768;8.636;2023-05-07T06:12:03;7.75;;;1.83;;
59434;SDS011;45241;49.768;8.636;2023-05-07T06:14:29;3.17;;;1.40;;
59434;SDS011;45241;49.768;8.636;2023-05-07T06:16:54;2.75;;;1.52;;
59434;SDS011;45241;49.768;8.636;2023-05-07T06:19:19;3.33;;;1.67;;
59434;SDS011;45241;49.768;8.636;2023-05-07T06:21:48;3.28;;;2.10;;
59434;SDS011;45241;49.768;8.636;2023-05-07T06:24:13;2.90;;;1.83;;
59434;SDS011;45241;49.768;8.636;2023-05-07T06:26:39;2.55;;;1.75;;
59434;SDS011;45241;49.768;8.636;2023-05-07T06:29:04;3.35;;;2.20;;
59434;SDS011;45241;49.768;8.636;2023-05-07T06:31:30;5.43;;;2.22;;
59434;SDS011;45241;49.768;8.636;2023-05-07T06:33:57;3.58;;;2.22;;
59434;SDS011;45241;49.768;8.636;2023-05-07T06:36:22;3.05;;;2.15;;
59434;SDS011;45241;49.768;8.636;2023-05-07T06:38:47;6.13;;;2.30;;
59434;SDS011;45241;49.768;8.636;2023-05-07T06:41:13;7.22;;;2.10;;
59434;SDS011;45241;49.768;8.636;2023-05-07T06:43:38;4.57;;;2.20;;
59434;SDS011;45241;49.768;8.636;2023-05-07T06:46:03;3.28;;;2.10;;
59434;SDS011;45241;49.768;8.636;2023-05-07T06:48:29;3.13;;;1.88;;
59434;SDS011;45241;49.768;8.636;2023-05-07T06:50:54;2.22;;;1.75;;
59434;SDS011;45241;49.768;8.636;2023-05-07T06:53:20;3.13;;;2.10;;
59434;SDS011;45241;49.768;8.636;2023-05-07T06:55:46;4.38;;;1.95;;
59434;SDS011;45241;49.768;8.636;2023-05-07T06:58:11;3.13;;;1.52;;
59434;SDS011;45241;49.768;8.636;2023-05-07T07:00:36;1.90;;;1.80;;
59434;SDS011;45241;49.768;8.636;2023-05-07T07:03:02;1.63;;;1.50;;
59434;SDS011;45241;49.768;8.636;2023-05-07T07:05:27;2.13;;;1.70;;
59434;SDS011;45241;49.768;8.636;2023-05-07T07:07:52;4.63;;;1.95;;
59434;SDS011;45241;49.768;8.636;2023-05-07T07:10:18;3.00;;;1.88;;
59434;SDS011;45241;49.768;8.636;2023-05-07T07:12:45;1.73;;;1.63;;
59434;SDS011;45241;49.768;8.636;2023-05-07T07:15:10;3.97;;;1.50;;
59434;SDS011;45241;49.768;8.636;2023-05-07T07:17:35;2.65;;;1.60;;
59434;SDS011;45241;49.768;8.636;2023-05-07T07:20:01;2.42;;;1.60;;
59434;SDS011;45241;49.768;8.636;2023-05-07T07:22:27;3.80;;;1.58;;
59434;SDS011;45241;49.768;8.636;2023-05-07T07:24:53;2.38;;;1.52;;
59434;SDS011;45241;49.768;8.636;2023-05-07T07:27:18;3.58;;;1.50;;
59434;SDS011;45241;49.768;8.636;2023-05-07T07:29:43;4.47;;;2.05;;
59434;SDS011;45241;49.768;8.636;2023-05-07T07:32:08;3.90;;;2.20;;
59434;SDS011;45241;49.768;8.636;2023-05-07T07:34:34;1.50;;;1.40;;
59434;SDS011;45241;49.768;8.636;2023-05-07T07:36:59;2.25;;;1.50;;
59434;SDS011;45241;49.768;8.636;2023-05-07T07:39:30;3.17;;;1.60;;
59434;SDS011;45241;49.768;8.636;2023-05-07T07:41:55;2.90;;;2.10;;
59434;SDS011;45241;49.768;8.636;2023-05-07T07:44:21;4.22;;;1.73;;
59434;SDS011;45241;49.768;8.636;2023-05-07T07:46:46;2.58;;;1.60;;
59434;SDS011;45241;49.768;8.636;2023-05-07T07:49:11;2.25;;;1.50;;
59434;SDS011;45241;49.768;8.636;2023-05-07T07:51:37;2.15;;;1.50;;
59434;SDS011;45241;49.768;8.636;2023-05-07T07:54:02;2.50;;;1.50;;
59434;SDS011;45241;49.768;8.636;2023-05-07T07:56:28;2.65;;;1.50;;
59434;SDS011;45241;49.768;8.636;2023-05-07T07:58:54;2.50;;;1.60;;
59434;SDS011;45241;49.768;8.636;2023-05-07T08:01:19;1.95;;;1.45;;
59434;SDS011;45241;49.768;8.636;2023-05-07T08:03:45;2.65;;;1.42;;
59434;SDS011;45241;49.768;8.636;2023-05-07T08:06:10;2.67;;;1.90;;
59434;SDS011;45241;49.768;8.636;2023-05-07T08:08:35;2.85;;;1.58;;
59434;SDS011;45241;49.768;8.636;2023-05-07T08:11:01;2.90;;;1.50;;
59434;SDS011;45241;49.768;8.636;2023-05-07T08:13:26;4.03;;;1.70;;
59434;SDS011;45241;49.768;8.636;2023-05-07T08:15:51;1.60;;;1.50;;
59434;SDS011;45241;49.768;8.636;2023-05-07T08:18:17;2.60;;;1.70;;
59434;SDS011;45241;49.768;8.636;2023-05-07T08:20:42;2.33;;;1.52;;
59434;SDS011;45241;49.768;8.636;2023-05-07T08:23:08;3.85;;;1.90;;
59434;SDS011;45241;49.768;8.636;2023-05-07T08:25:33;2.22;;;1.67;;
59434;SDS011;45241;49.768;8.636;2023-05-07T08:27:59;1.80;;;1.70;;
59434;SDS011;45241;49.768;8.636;2023-05-07T08:30:25;1.88;;;1.70;;
59434;SDS011;45241;49.768;8.636;2023-05-07T08:32:50;2.78;;;1.63;;
59434;SDS011;45241;49.768;8.636;2023-05-07T08:35:15;2.08;;;1.65;;
59434;SDS011;45241;49.768;8.636;2023-05-07T08:37:41;1.77;;;1.60;;
59434;SDS011;45241;49.768;8.636;2023-05-07T08:40:06;2.67;;;2.00;;
59434;SDS011;45241;49.768;8.636;2023-05-07T08:42:34;2.28;;;2.00;;
59434;SDS011;45241;49.768;8.636;2023-05-07T08:45:01;2.33;;;2.08;;
59434;SDS011;45241;49.768;8.636;2023-05-07T08:47:32;3.60;;;2.23;;
59434;SDS011;45241;49.768;8.636;2023-05-07T08:50:04;3.38;;;2.10;;
59434;SDS011;45241;49.768;8.636;2023-05-07T08:52:30;2.67;;;1.83;;
59434;SDS011;45241;49.768;8.636;2023-05-07T08:54:56;4.13;;;2.08;;
59434;SDS011;45241;49.768;8.636;2023-05-07T08:57:23;2.72;;;2.10;;
59434;SDS011;45241;49.768;8.636;2023-05-07T08:59:49;2.30;;;2.10;;
59434;SDS011;45241;49.768;8.636;2023-05-07T09:02:15;2.67;;;2.35;;
59434;SDS011;45241;49.768;8.636;2023-05-07T09:04:41;3.50;;;2.20;;
59434;SDS011;45241;49.768;8.636;2023-05-07T09:07:06;2.75;;;1.90;;
59434;SDS011;45241;49.768;8.636;2023-05-07T09:09:32;3.35;;;2.20;;
59434;SDS011;45241;49.768;8.636;2023-05-07T09:11:58;2.45;;;2.00;;
59434;SDS011;45241;49.768;8.636;2023-05-07T09:14:24;2.50;;;2.30;;
59434;SDS011;45241;49.768;8.636;2023-05-07T09:16:51;3.38;;;2.10;;
59434;SDS011;45241;49.768;8.636;2023-05-07T09:19:21;2.30;;;2.10;;
59434;SDS011;45241;49.768;8.636;2023-05-07T09:22:00;2.53;;;2.00;;
59434;SDS011;45241;49.768;8.636;2023-05-07T09:24:27;2.25;;;1.88;;
59434;SDS011;45241;49.768;8.636;2023-05-07T09:26:57;2.08;;;1.88;;
59434;SDS011;45241;49.768;8.636;2023-05-07T09:29:22;3.25;;;1.98;;
59434;SDS011;45241;49.768;8.636;2023-05-07T09:31:48;2.28;;;1.83;;
59434;SDS011;45241;49.768;8.636;2023-05-07T09:34:13;3.08;;;2.10;;
59434;SDS011;45241;49.768;8.636;2023-05-07T09:36:38;1.77;;;1.67;;
59434;SDS011;45241;49.768;8.636;2023-05-07T09:39:04;3.67;;;1.98;;
59434;SDS011;45241;49.768;8.636;2023-05-07T09:41:32;2.35;;;2.15;;
59434;SDS011;45241;49.768;8.636;2023-05-07T09:43:57;2.58;;;2.00;;
59434;SDS011;45241;49.768;8.636;2023-05-07T09:46:25;2.97;;;2.15;;
59434;SDS011;45241;49.768;8.636;2023-05-07T09:48:56;3.38;;;2.20;;
59434;SDS011;45241;49.768;8.636;2023-05-07T09:51:29;2.53;;;2.10;;
59434;SDS011;45241;49.768;8.636;2023-05-07T09:53:58;3.72;;;2.30;;
59434;SDS011;45241;49.768;8.636;2023-05-07T09:56:27;4.35;;;2.05;;
59434;SDS011;45241;49.768;8.636;2023-05-07T09:58:55;2.75;;;2.10;;
59434;SDS011;45241;49.768;8.636;2023-05-07T10:01:22;3.42;;;2.28;;
59434;SDS011;45241;49.768;8.636;2023-05-07T10:03:50;4.13;;;2.05;;
59434;SDS011;45241;49.768;8.636;2023-05-07T10:06:17;3.40;;;2.20;;
59434;SDS011;45241;49.768;8.636;2023-05-07T10:08:44;3.50;;;2.80;;
59434;SDS011;45241;49.768;8.636;2023-05-07T10:11:10;3.55;;;2.65;;
59434;SDS011;45241;49.768;8.636;2023-05-07T10:13:36;3.25;;;2.10;;
59434;SDS011;45241;49.768;8.636;2023-05-07T10:16:03;2.47;;;2.20;;
59434;SDS011;45241;49.768;8.636;2023-05-07T10:18:32;3.38;;;2.40;;
59434;SDS011;45241;49.768;8.636;2023-05-07T10:21:02;2.20;;;2.00;;
59434;SDS011;45241;49.768;8.636;2023-05-07T10:23:31;3.05;;;2.20;;
59434;SDS011;45241;49.768;8.636;2023-05-07T10:25:58;5.43;;;2.42;;
59434;SDS011;45241;49.768;8.636;2023-05-07T10:28:26;7.43;;;2.35;;
59434;SDS011;45241;49.768;8.636;2023-05-07T10:33:49;4.93;;;2.70;;
59434;SDS011;45241;49.768;8.636;2023-05-07T10:36:17;3.35;;;2.53;;
59434;SDS011;45241;49.768;8.636;2023-05-07T10:38:44;4.32;;;2.33;;
59434;SDS011;45241;49.768;8.636;2023-05-07T10:41:11;3.40;;;2.20;;
59434;SDS011;45241;49.768;8.636;2023-05-07T10:43:45;3.78;;;2.40;;
59434;SDS011;45241;49.768;8.636;2023-05-07T10:51:25;4.60;;;2.40;;
59434;SDS011;45241;49.768;8.636;2023-05-07T10:56:34;2.40;;;2.20;;
59434;SDS011;45241;49.768;8.636;2023-05-07T11:01:49;4.55;;;2.78;;
59434;SDS011;45241;49.768;8.636;2023-05-07T11:04:16;2.40;;;2.20;;
59434;SDS011;45241;49.768;8.636;2023-05-07T11:17:53;3.15;;;2.55;;
59434;SDS011;45241;49.768;8.636;2023-05-07T11:25:58;2.88;;;2.58;;
59434;SDS011;45241;49.768;8.636;2023-05-07T11:28:26;2.60;;;2.38;;
59434;SDS011;45241;49.768;8.636;2023-05-07T11:30:52;3.50;;;2.80;;
59434;SDS011;45241;49.768;8.636;2023-05-07T11:33:18;4.40;;;2.50;;
59434;SDS011;45241;49.768;8.636;2023-05-07T11:35:44;2.85;;;2.40;;
59434;SDS011;45241;49.768;8.636;2023-05-07T11:38:10;2.55;;;2.17;;
59434;SDS011;45241;49.768;8.636;2023-05-07T11:40:58;4.32;;;2.80;;
59434;SDS011;45241;49.768;8.636;2023-05-07T11:43:25;3.35;;;2.30;;
59434;SDS011;45241;49.768;8.636;2023-05-07T11:45:51;4.97;;;2.70;;
59434;SDS011;45241;49.768;8.636;2023-05-07T11:48:16;2.88;;;2.20;;
59434;SDS011;45241;49.768;8.636;2023-05-07T11:50:59;3.13;;;2.30;;
59434;SDS011;45241;49.768;8.636;2023-05-07T11:53:35;3.25;;;2.65;;
59434;SDS011;45241;49.768;8.636;2023-05-07T11:56:07;3.55;;;2.50;;
59434;SDS011;45241;49.768;8.636;2023-05-07T11:58:34;2.83;;;2.50;;
59434;SDS011;45241;49.768;8.636;2023-05-07T12:00:59;2.80;;;2.30;;
59434;SDS011;45241;49.768;8.636;2023-05-07T12:03:25;3.38;;;2.47;;
59434;SDS011;45241;49.768;8.636;2023-05-07T12:05:50;2.92;;;2.35;;
59434;SDS011;45241;49.768;8.636;2023-05-07T12:08:15;2.33;;;2.13;;
59434;SDS011;45241;49.768;8.636;2023-05-07T12:10:42;4.55;;;2.30;;
59434;SDS011;45241;49.768;8.636;2023-05-07T12:13:18;3.38;;;2.38;;
59434;SDS011;45241;49.768;8.636;2023-05-07T12:15:44;2.10;;;2.00;;
59434;SDS011;45241;49.768;8.636;2023-05-07T12:18:12;2.50;;;2.30;;
59434;SDS011;45241;49.768;8.636;2023-05-07T12:20:38;3.03;;;2.30;;
59434;SDS011;45241;49.768;8.636;2023-05-07T12:23:04;2.50;;;2.30;;
59434;SDS011;45241;49.768;8.636;2023-05-07T12:25:31;2.83;;;2.35;;
59434;SDS011;45241;49.768;8.636;2023-05-07T12:27:57;3.88;;;2.42;;
59434;SDS011;45241;49.768;8.636;2023-05-07T12:30:24;3.80;;;2.45;;
59434;SDS011;45241;49.768;8.636;2023-05-07T12:32:52;2.70;;;2.50;;
59434;SDS011;45241;49.768;8.636;2023-05-07T12:35:25;2.65;;;2.45;;
59434;SDS011;45241;49.768;8.636;2023-05-07T12:37:58;3.88;;;2.20;;
59434;SDS011;45241;49.768;8.636;2023-05-07T12:40:35;3.72;;;2.20;;
59434;SDS011;45241;49.768;8.636;2023-05-07T12:43:01;2.40;;;2.20;;
59434;SDS011;45241;49.768;8.636;2023-05-07T12:45:26;4.25;;;2.80;;
59434;SDS011;45241;49.768;8.636;2023-05-07T12:47:52;2.20;;;2.00;;
59434;SDS011;45241;49.768;8.636;2023-05-07T12:50:17;2.67;;;2.10;;
59434;SDS011;45241;49.768;8.636;2023-05-07T12:52:43;2.53;;;2.15;;
59434;SDS011;45241;49.768;8.636;2023-05-07T12:55:12;2.00;;;1.90;;
59434;SDS011;45241;49.768;8.636;2023-05-07T12:57:41;2.20;;;1.98;;
59434;SDS011;45241;49.768;8.636;2023-05-07T13:00:07;6.03;;;2.20;;
59434;SDS011;45241;49.768;8.636;2023-05-07T13:02:34;3.45;;;2.10;;
59434;SDS011;45241;49.768;8.636;2023-05-07T13:05:03;2.28;;;2.08;;
59434;SDS011;45241;49.768;8.636;2023-05-07T13:07:28;3.00;;;2.00;;
59434;SDS011;45241;49.768;8.636;2023-05-07T13:09:54;3.15;;;2.00;;
59434;SDS011;45241;49.768;8.636;2023-05-07T13:12:19;2.13;;;1.90;;
59434;SDS011;45241;49.768;8.636;2023-05-07T13:14:44;2.90;;;1.92;;
59434;SDS011;45241;49.768;8.636;2023-05-07T13:17:10;3.53;;;2.20;;
59434;SDS011;45241;49.768;8.636;2023-05-07T13:19:35;2.85;;;1.92;;
59434;SDS011;45241;49.768;8.636;2023-05-07T13:22:02;3.95;;;1.90;;
59434;SDS011;45241;49.768;8.636;2023-05-07T13:24:27;2.38;;;2.17;;
59434;SDS011;45241;49.768;8.636;2023-05-07T13:26:53;3.30;;;2.20;;
59434;SDS011;45241;49.768;8.636;2023-05-07T13:29:18;3.30;;;2.10;;
59434;SDS011;45241;49.768;8.636;2023-05-07T13:31:43;5.03;;;2.35;;
59434;SDS011;45241;49.768;8.636;2023-05-07T13:34:09;3.97;;;2.00;;
59434;SDS011;45241;49.768;8.636;2023-05-07T13:36:34;4.10;;;2.25;;
59434;SDS011;45241;49.768;8.636;2023-05-07T13:39:02;3.28;;;2.22;;
59434;SDS011;45241;49.768;8.636;2023-05-07T13:41:28;2.42;;;2.08;;
59434;SDS011;45241;49.768;8.636;2023-05-07T13:43:54;3.80;;;2.10;;
59434;SDS011;45241;49.768;8.636;2023-05-07T13:46:19;2.22;;;2.03;;
59434;SDS011;45241;49.768;8.636;2023-05-07T13:48:45;2.40;;;2.00;;
59434;SDS011;45241;49.768;8.636;2023-05-07T13:51:10;3.15;;;1.90;;
59434;SDS011;45241;49.768;8.636;2023-05-07T13:53:35;3.00;;;2.22;;
59434;SDS011;45241;49.768;8.636;2023-05-07T13:56:01;2.35;;;2.15;;
59434;SDS011;45241;49.768;8.636;2023-05-07T13:58:29;2.40;;;2.20;;
59434;SDS011;45241;49.768;8.636;2023-05-07T14:00:54;3.10;;;2.05;;
59434;SDS011;45241;49.768;8.636;2023-05-07T14:03:20;2.38;;;2.17;;
59434;SDS011;45241;49.768;8.636;2023-05-07T14:05:45;3.05;;;2.15;;
59434;SDS011;45241;49.768;8.636;2023-05-07T14:08:10;2.40;;;2.20;;
59434;SDS011;45241;49.768;8.636;2023-05-07T14:10:37;2.95;;;2.25;;
59434;SDS011;45241;49.768;8.636;2023-05-07T14:13:03;2.33;;;2.13;;
59434;SDS011;45241;49.768;8.636;2023-05-07T14:15:28;2.45;;;2.15;;
59434;SDS011;45241;49.768;8.636;2023-05-07T14:17:53;3.20;;;2.30;;
59434;SDS011;45241;49.768;8.636;2023-05-07T14:20:19;4.80;;;2.30;;
59434;SDS011;45241;49.768;8.636;2023-05-07T14:22:45;2.45;;;2.20;;
59434;SDS011;45241;49.768;8.636;2023-05-07T14:25:10;2.45;;;2.25;;
59434;SDS011;45241;49.768;8.636;2023-05-07T14:27:36;2.55;;;2.03;;
59434;SDS011;45241;49.768;8.636;2023-05-07T14:30:01;2.53;;;2.30;;
59434;SDS011;45241;49.768;8.636;2023-05-07T14:32:27;2.45;;;2.25;;
59434;SDS011;45241;49.768;8.636;2023-05-07T14:34:52;4.72;;;2.40;;
59434;SDS011;45241;49.768;8.636;2023-05-07T14:37:17;3.55;;;2.30;;
59434;SDS011;45241;49.768;8.636;2023-05-07T14:39:44;2.55;;;2.25;;
59434;SDS011;45241;49.768;8.636;2023-05-07T14:42:10;2.78;;;2.55;;
59434;SDS011;45241;49.768;8.636;2023-05-07T14:44:36;3.08;;;2.30;;
59434;SDS011;45241;49.768;8.636;2023-05-07T14:47:01;2.53;;;2.33;;
59434;SDS011;45241;49.768;8.636;2023-05-07T14:49:27;2.75;;;2.25;;
59434;SDS011;45241;49.768;8.636;2023-05-07T14:51:53;2.67;;;2.47;;
59434;SDS011;45241;49.768;8.636;2023-05-07T14:54:18;2.30;;;2.10;;
59434;SDS011;45241;49.768;8.636;2023-05-07T14:56:44;2.35;;;2.10;;
59434;SDS011;45241;49.768;8.636;2023-05-07T14:59:09;3.28;;;2.20;;
59434;SDS011;45241;49.768;8.636;2023-05-07T15:01:35;2.55;;;2.35;;
59434;SDS011;45241;49.768;8.636;2023-05-07T15:04:02;2.78;;;2.45;;
59434;SDS011;45241;49.768;8.636;2023-05-07T15:06:28;104.88;;;41.72;;
59434;SDS011;45241;49.768;8.636;2023-05-07T15:08:54;67.18;;;32.22;;
59434;SDS011;45241;49.768;8.636;2023-05-07T15:11:19;62.83;;;37.45;;